createdAt,value
2023-04-18T00:01:58.535Z,10.43
2023-04-18T00:04:26.053Z,9.90
2023-04-18T00:06:52.875Z,9.30
2023-04-18T00:09:20.149Z,13.90
2023-04-18T00:11:47.420Z,9.73
2023-04-18T00:14:14.725Z,10.83
2023-04-18T00:16:42.393Z,10.37
2023-04-18T00:19:10.412Z,9.13
2023-04-18T00:21:37.316Z,9.43
2023-04-18T00:24:04.195Z,9.20
2023-04-18T00:26:31.009Z,10.33
2023-04-18T00:28:58.213Z,11.00
2023-04-18T00:31:25.531Z,10.17
2023-04-18T00:33:52.449Z,9.87
2023-04-18T00:36:19.629Z,10.40
2023-04-18T00:38:46.747Z,9.87
2023-04-18T00:41:13.899Z,9.57
2023-04-18T00:43:40.722Z,10.20
2023-04-18T00:46:08.020Z,10.10
2023-04-18T00:48:34.905Z,12.33
2023-04-18T00:51:02.026Z,10.23
2023-04-18T00:53:29.309Z,9.00
2023-04-18T00:55:56.486Z,10.43
2023-04-18T00:58:24.056Z,10.87
2023-04-18T01:00:52.070Z,10.77
2023-04-18T01:03:18.882Z,11.63
2023-04-18T01:05:46.573Z,13.23
2023-04-18T01:08:13.811Z,10.70
2023-04-18T01:10:40.756Z,12.00
2023-04-18T01:13:14.618Z,13.00
2023-04-18T01:15:46.156Z,11.63
2023-04-18T01:18:13.895Z,13.90
2023-04-18T01:20:45.809Z,14.87
2023-04-18T01:23:12.791Z,12.10
2023-04-18T01:25:39.741Z,14.70
2023-04-18T01:28:07.223Z,13.83
2023-04-18T01:30:34.446Z,14.43
2023-04-18T01:33:03.144Z,16.03
2023-04-18T01:35:30.522Z,12.10
2023-04-18T01:37:57.898Z,13.53
2023-04-18T01:40:25.206Z,14.80
2023-04-18T01:42:52.223Z,15.47
2023-04-18T01:45:20.022Z,13.40
2023-04-18T01:47:47.161Z,12.43
2023-04-18T01:50:14.488Z,13.73
2023-04-18T01:52:41.343Z,14.00
2023-04-18T01:55:08.608Z,13.07
2023-04-18T01:57:38.305Z,10.43
2023-04-18T02:00:06.949Z,15.30
2023-04-18T02:02:34.311Z,11.70
2023-04-18T02:05:01.377Z,12.17
2023-04-18T02:07:28.169Z,12.53
2023-04-18T02:09:55.471Z,15.23
2023-04-18T02:12:22.694Z,13.00
2023-04-18T02:14:53.408Z,12.70
2023-04-18T02:17:25.668Z,12.10
2023-04-18T02:19:52.385Z,13.93
2023-04-18T02:22:19.577Z,15.07
2023-04-18T02:24:46.418Z,13.50
2023-04-18T02:27:13.628Z,12.80
2023-04-18T02:29:40.542Z,12.80
2023-04-18T02:32:08.241Z,12.63
2023-04-18T02:34:36.595Z,13.40
2023-04-18T02:37:04.155Z,13.37
2023-04-18T02:39:31.585Z,16.90
2023-04-18T02:41:58.757Z,16.30
2023-04-18T02:44:27.203Z,15.70
2023-04-18T02:46:54.301Z,16.93
2023-04-18T02:49:21.451Z,15.93
2023-04-18T02:51:48.653Z,16.00
2023-04-18T02:54:16.013Z,14.83
2023-04-18T02:56:43.366Z,15.10
2023-04-18T02:59:10.656Z,15.10
2023-04-18T03:01:37.885Z,14.17
2023-04-18T03:04:04.957Z,16.70
2023-04-18T03:06:31.852Z,16.93
2023-04-18T03:08:58.688Z,16.83
2023-04-18T03:11:25.360Z,20.07
2023-04-18T03:13:52.098Z,14.60
2023-04-18T03:16:18.916Z,14.00
2023-04-18T03:18:45.748Z,15.00
2023-04-18T03:21:12.561Z,16.63
2023-04-18T03:23:39.266Z,13.50
2023-04-18T03:26:07.502Z,13.40
2023-04-18T03:28:34.440Z,15.00
2023-04-18T03:31:01.298Z,17.37
2023-04-18T03:33:28.802Z,17.37
2023-04-18T03:35:55.613Z,16.33
2023-04-18T03:38:22.458Z,18.33
2023-04-18T03:40:49.328Z,19.30
2023-04-18T03:43:16.185Z,18.77
2023-04-18T03:45:44.195Z,18.03
2023-04-18T03:48:11.088Z,20.00
2023-04-18T03:50:37.778Z,20.30
2023-04-18T03:53:04.506Z,19.67
2023-04-18T03:55:31.369Z,23.20
2023-04-18T03:57:59.156Z,20.73
2023-04-18T04:00:26.403Z,17.40
2023-04-18T04:02:53.300Z,20.47
2023-04-18T04:05:20.171Z,19.90
2023-04-18T04:07:47.190Z,22.70
2023-04-18T04:10:13.922Z,20.93
2023-04-18T04:12:40.574Z,26.30
2023-04-18T04:15:07.743Z,22.93
2023-04-18T04:17:34.888Z,22.47
2023-04-18T04:20:02.157Z,29.80
2023-04-18T04:22:28.817Z,24.50
2023-04-18T04:24:57.820Z,24.03
2023-04-18T04:27:25.104Z,26.80
2023-04-18T04:29:54.685Z,29.83
2023-04-18T04:32:21.657Z,27.23
2023-04-18T04:34:49.396Z,29.57
2023-04-18T04:37:18.650Z,24.30
2023-04-18T04:39:46.267Z,28.27
2023-04-18T04:42:13.347Z,22.90
2023-04-18T04:44:41.685Z,25.17
2023-04-18T04:47:08.545Z,23.13
2023-04-18T04:49:35.555Z,25.10
2023-04-18T04:52:03.047Z,23.60
2023-04-18T04:54:30.357Z,22.87
2023-04-18T04:56:57.229Z,27.57
2023-04-18T04:59:24.017Z,23.80
2023-04-18T05:01:51.011Z,22.90
2023-04-18T05:04:18.558Z,25.33
2023-04-18T05:06:46.171Z,24.40
2023-04-18T05:09:13.469Z,24.80
2023-04-18T05:11:40.310Z,24.10
2023-04-18T05:14:07.272Z,24.63
2023-04-18T05:16:34.103Z,26.27
2023-04-18T05:19:00.956Z,25.10
2023-04-18T05:21:28.715Z,25.07
2023-04-18T05:23:56.310Z,25.30
2023-04-18T05:26:23.312Z,30.97
2023-04-18T05:28:50.511Z,26.87
2023-04-18T05:31:17.344Z,24.67
2023-04-18T05:33:44.219Z,28.90
2023-04-18T05:36:11.405Z,20.73
2023-04-18T05:38:38.179Z,25.77
2023-04-18T05:41:05.014Z,29.47
2023-04-18T05:43:31.834Z,28.80
2023-04-18T05:45:58.570Z,29.10
2023-04-18T05:48:25.755Z,28.40
2023-04-18T05:50:52.541Z,26.10
2023-04-18T05:53:19.297Z,27.47
2023-04-18T05:55:48.589Z,33.63
2023-04-18T05:58:15.795Z,25.90
2023-04-18T06:00:43.091Z,27.33
2023-04-18T06:03:11.192Z,27.70
2023-04-18T06:05:38.578Z,26.33
2023-04-18T06:08:05.990Z,29.00
2023-04-18T06:10:33.110Z,33.97
2023-04-18T06:12:59.791Z,32.77
2023-04-18T06:15:26.472Z,35.13
2023-04-18T06:17:53.296Z,30.50
2023-04-18T06:20:20.201Z,36.00
2023-04-18T06:22:46.953Z,31.10
2023-04-18T06:25:13.786Z,33.50
2023-04-18T06:27:40.571Z,39.17
2023-04-18T06:30:08.253Z,33.23
2023-04-18T06:32:35.248Z,35.73
2023-04-18T06:35:03.692Z,31.07
2023-04-18T06:37:30.545Z,28.67
2023-04-18T06:39:57.246Z,33.00
2023-04-18T06:42:24.024Z,35.23
2023-04-18T06:44:51.134Z,33.17
2023-04-18T06:47:18.338Z,33.53
2023-04-18T06:49:45.113Z,32.30
2023-04-18T06:52:11.884Z,28.40
2023-04-18T06:54:38.583Z,31.27
2023-04-18T06:57:05.496Z,29.40
2023-04-18T06:59:32.231Z,29.17
2023-04-18T07:01:58.981Z,29.60
2023-04-18T07:04:25.867Z,32.40
2023-04-18T07:06:52.748Z,39.85
2023-04-18T07:09:20.056Z,31.93
2023-04-18T07:11:46.812Z,37.30
2023-04-18T07:14:13.749Z,33.87
2023-04-18T07:16:40.723Z,31.67
2023-04-18T07:19:07.487Z,33.90
2023-04-18T07:21:34.195Z,29.70
2023-04-18T07:24:00.873Z,29.57
2023-04-18T07:26:27.712Z,27.53
2023-04-18T07:28:54.443Z,26.93
2023-04-18T07:31:21.262Z,30.37
2023-04-18T07:33:48.178Z,28.73
2023-04-18T07:36:14.933Z,38.90
2023-04-18T07:38:41.817Z,36.13
2023-04-18T07:41:08.527Z,37.30
2023-04-18T07:43:35.918Z,27.03
2023-04-18T07:46:02.812Z,27.73
2023-04-18T07:48:29.577Z,31.40
2023-04-18T07:50:56.255Z,31.83
2023-04-18T07:53:23.016Z,30.00
2023-04-18T07:55:50.188Z,34.63
2023-04-18T07:58:17.561Z,30.57
2023-04-18T08:00:44.907Z,29.77
2023-04-18T08:03:13.069Z,28.50
2023-04-18T08:05:41.778Z,34.13
2023-04-18T08:08:10.200Z,30.13
2023-04-18T08:10:37.539Z,33.00
2023-04-18T08:13:04.637Z,30.30
2023-04-18T08:15:32.724Z,33.43
2023-04-18T08:18:00.552Z,34.83
2023-04-18T08:20:27.651Z,30.67
2023-04-18T08:23:05.661Z,34.20
2023-04-18T08:25:33.546Z,37.17
2023-04-18T08:28:00.449Z,33.40
2023-04-18T08:30:27.318Z,32.50
2023-04-18T08:32:54.215Z,29.10
2023-04-18T08:35:21.207Z,29.17
2023-04-18T08:37:48.344Z,34.13
2023-04-18T08:40:15.102Z,35.20
2023-04-18T08:42:44.797Z,28.90
2023-04-18T08:45:16.587Z,29.47
2023-04-18T08:47:43.410Z,38.23
2023-04-18T08:50:10.809Z,28.97
2023-04-18T08:52:40.119Z,28.87
2023-04-18T08:55:07.623Z,28.73
2023-04-18T08:57:36.197Z,36.40
2023-04-18T09:00:09.958Z,30.07
2023-04-18T09:02:45.216Z,29.10
2023-04-18T09:05:19.758Z,30.60
2023-04-18T09:07:51.471Z,25.80
2023-04-18T09:10:36.570Z,31.50
2023-04-18T09:13:04.293Z,29.40
2023-04-18T09:15:31.339Z,27.27
2023-04-18T09:18:00.475Z,27.67
2023-04-18T09:20:41.114Z,30.17
2023-04-18T09:23:14.681Z,25.23
2023-04-18T09:25:44.580Z,28.17
2023-04-18T09:28:29.804Z,26.30
2023-04-18T09:30:58.841Z,38.70
2023-04-18T09:33:28.265Z,24.43
2023-04-18T09:35:57.069Z,26.00
2023-04-18T09:38:40.425Z,26.17
2023-04-18T09:41:09.019Z,24.40
2023-04-18T09:43:36.135Z,23.20
2023-04-18T09:46:04.465Z,27.53
2023-04-18T09:48:31.427Z,24.77
2023-04-18T09:51:01.579Z,25.27
2023-04-18T09:53:29.838Z,24.87
2023-04-18T09:55:57.904Z,23.23
2023-04-18T09:58:28.516Z,22.37
2023-04-18T10:00:56.336Z,24.23
2023-04-18T10:03:32.667Z,23.20
2023-04-18T10:05:59.554Z,24.30
2023-04-18T10:08:27.242Z,23.63
2023-04-18T10:10:55.960Z,22.90
2023-04-18T10:13:23.896Z,22.37
2023-04-18T10:15:52.381Z,21.10
2023-04-18T10:18:23.384Z,22.50
2023-04-18T10:20:50.202Z,22.33
2023-04-18T10:23:32.297Z,21.47
2023-04-18T10:25:59.491Z,22.90
2023-04-18T10:28:27.705Z,19.50
2023-04-18T10:31:02.862Z,20.03
2023-04-18T10:33:35.603Z,22.17
2023-04-18T10:36:08.957Z,24.50
2023-04-18T10:38:38.838Z,21.93
2023-04-18T10:41:32.931Z,22.80
2023-04-18T10:44:09.076Z,22.80
2023-04-18T10:46:40.016Z,21.83
2023-04-18T10:49:26.272Z,19.27
2023-04-18T10:51:54.697Z,20.93
2023-04-18T10:54:47.865Z,21.20
2023-04-18T10:57:15.257Z,19.60
2023-04-18T10:59:43.751Z,20.70
2023-04-18T11:02:25.848Z,20.30
2023-04-18T11:04:57.730Z,20.00
2023-04-18T11:07:34.238Z,21.13
2023-04-18T11:10:02.055Z,18.53
2023-04-18T11:12:34.170Z,22.23
2023-04-18T11:15:04.128Z,20.00
2023-04-18T11:17:32.845Z,20.00
2023-04-18T11:20:01.734Z,20.03
2023-04-18T11:22:28.610Z,21.97
2023-04-18T11:25:00.085Z,22.33
2023-04-18T11:27:27.025Z,17.80
2023-04-18T11:29:54.997Z,17.50
2023-04-18T11:32:24.389Z,23.43
2023-04-18T11:34:53.355Z,17.67
2023-04-18T11:37:20.618Z,18.53
2023-04-18T11:39:47.786Z,17.67
2023-04-18T11:42:14.766Z,16.87
2023-04-18T11:44:46.060Z,15.67
2023-04-18T11:47:43.228Z,15.57
2023-04-18T11:50:12.683Z,19.83
2023-04-18T11:52:42.753Z,17.93
2023-04-18T11:55:13.696Z,14.30
2023-04-18T11:57:41.779Z,15.17
2023-04-18T12:00:10.116Z,17.10
2023-04-18T12:02:43.293Z,16.20
2023-04-18T12:05:11.959Z,17.37
2023-04-18T12:07:39.962Z,15.33
2023-04-18T12:10:23.412Z,21.27
2023-04-18T12:12:52.115Z,16.30
2023-04-18T12:15:19.964Z,17.00
2023-04-18T12:17:48.600Z,16.73
2023-04-18T12:20:16.139Z,15.60
2023-04-18T12:22:49.495Z,15.87
2023-04-18T12:25:27.290Z,14.90
2023-04-18T12:28:03.576Z,14.13
2023-04-18T12:30:37.372Z,18.00
2023-04-18T12:33:04.934Z,17.60
2023-04-18T12:35:32.227Z,16.70
2023-04-18T12:38:00.894Z,15.97
2023-04-18T12:40:28.793Z,13.33
2023-04-18T12:42:56.392Z,15.07
2023-04-18T12:45:23.731Z,16.90
2023-04-18T12:47:52.315Z,14.83
2023-04-18T12:50:21.307Z,12.57
2023-04-18T12:52:48.377Z,11.47
2023-04-18T12:55:15.787Z,14.33
2023-04-18T12:57:42.949Z,15.53
2023-04-18T13:00:11.400Z,15.90
2023-04-18T13:02:40.302Z,16.77
2023-04-18T13:05:11.764Z,13.80
2023-04-18T13:07:40.540Z,15.00
2023-04-18T13:10:12.478Z,20.63
2023-04-18T13:12:40.679Z,13.00
2023-04-18T13:15:11.014Z,14.00
2023-04-18T13:17:41.304Z,14.27
2023-04-18T13:20:13.026Z,13.30
2023-04-18T13:22:41.268Z,13.60
2023-04-18T13:25:10.616Z,15.07
2023-04-18T13:27:40.916Z,13.80
2023-04-18T13:30:10.605Z,17.07
2023-04-18T13:32:39.159Z,13.90
2023-04-18T13:35:09.097Z,16.67
2023-04-18T13:37:36.722Z,14.57
2023-04-18T13:40:07.961Z,14.53
2023-04-18T13:42:37.368Z,17.17
2023-04-18T13:45:04.450Z,16.03
2023-04-18T13:47:31.397Z,12.63
2023-04-18T13:49:58.438Z,14.10
2023-04-18T13:52:25.855Z,12.73
2023-04-18T13:54:52.854Z,12.73
2023-04-18T13:57:19.723Z,13.70
2023-04-18T13:59:46.812Z,20.10
2023-04-18T14:02:13.934Z,12.17
2023-04-18T14:04:40.982Z,13.80
2023-04-18T14:07:08.109Z,11.47
2023-04-18T14:09:35.043Z,11.40
2023-04-18T14:12:02.137Z,13.07
2023-04-18T14:14:29.243Z,13.73
2023-04-18T14:16:56.025Z,13.70
2023-04-18T14:19:22.826Z,12.13
2023-04-18T14:21:49.552Z,12.40
2023-04-18T14:24:16.542Z,14.60
2023-04-18T14:26:43.976Z,11.50
2023-04-18T14:29:11.150Z,16.00
2023-04-18T14:31:38.169Z,13.13
2023-04-18T14:34:05.638Z,12.43
2023-04-18T14:36:32.728Z,14.43
2023-04-18T14:38:59.558Z,16.50
2023-04-18T14:41:26.459Z,14.00
2023-04-18T14:43:53.327Z,18.77
2023-04-18T14:46:21.461Z,20.90
2023-04-18T14:48:48.289Z,16.33
2023-04-18T14:51:16.484Z,15.13
2023-04-18T14:53:44.246Z,14.30
2023-04-18T14:56:11.442Z,17.17
2023-04-18T14:58:38.203Z,13.27
2023-04-18T15:01:05.319Z,15.17
2023-04-18T15:03:32.404Z,15.40
2023-04-18T15:05:59.727Z,16.20
2023-04-18T15:08:26.813Z,13.23
2023-04-18T15:10:53.781Z,16.60
2023-04-18T15:13:20.698Z,14.87
2023-04-18T15:15:56.921Z,14.00
2023-04-18T15:18:24.210Z,15.30
2023-04-18T15:20:51.712Z,15.30
2023-04-18T15:23:20.962Z,15.90
2023-04-18T15:25:47.769Z,17.50
2023-04-18T15:28:14.558Z,15.77
2023-04-18T15:30:41.805Z,20.70
2023-04-18T15:33:08.719Z,17.23
2023-04-18T15:35:36.128Z,18.23
2023-04-18T15:38:02.959Z,18.10
2023-04-18T15:40:29.855Z,16.70
2023-04-18T15:42:57.830Z,12.87
2023-04-18T15:45:25.404Z,24.27
2023-04-18T15:47:52.673Z,17.80
2023-04-18T15:50:19.649Z,17.63
2023-04-18T15:52:46.442Z,20.77
2023-04-18T15:55:13.611Z,18.00
2023-04-18T15:57:41.736Z,20.93
2023-04-18T16:00:16.352Z,13.03
2023-04-18T16:02:44.153Z,28.33
2023-04-18T16:05:12.430Z,21.57
2023-04-18T16:07:40.433Z,16.37
2023-04-18T16:10:10.180Z,13.30
2023-04-18T16:12:37.896Z,17.97
2023-04-18T16:15:09.458Z,14.13
2023-04-18T16:17:37.479Z,13.30
2023-04-18T16:20:09.026Z,17.13
2023-04-18T16:22:36.741Z,18.50
2023-04-18T16:25:04.703Z,16.70
2023-04-18T16:27:32.161Z,23.27
2023-04-18T16:29:59.029Z,13.70
2023-04-18T16:32:26.420Z,14.57
2023-04-18T16:34:53.208Z,13.60
2023-04-18T16:37:20.316Z,18.43
2023-04-18T16:39:47.275Z,16.03
2023-04-18T16:42:15.890Z,15.03
2023-04-18T16:44:45.988Z,12.67
2023-04-18T16:47:13.156Z,16.07
2023-04-18T16:49:40.636Z,15.83
2023-04-18T16:52:07.777Z,14.30
2023-04-18T16:54:35.011Z,19.07
2023-04-18T16:57:02.820Z,17.80
2023-04-18T16:59:29.557Z,15.90
2023-04-18T17:01:56.559Z,16.17
2023-04-18T17:04:26.777Z,14.70
2023-04-18T17:06:53.877Z,15.40
2023-04-18T17:09:20.707Z,16.77
2023-04-18T17:11:47.389Z,17.10
2023-04-18T17:14:15.148Z,15.73
2023-04-18T17:16:42.623Z,14.97
2023-04-18T17:19:10.311Z,15.73
2023-04-18T17:21:38.115Z,16.60
2023-04-18T17:24:07.014Z,18.20
2023-04-18T17:26:34.924Z,16.90
2023-04-18T17:29:04.024Z,18.03
2023-04-18T17:31:34.135Z,16.63
2023-04-18T17:34:01.360Z,18.70
2023-04-18T17:36:28.547Z,17.80
2023-04-18T17:38:55.859Z,18.50
2023-04-18T17:41:23.202Z,15.93
2023-04-18T17:43:53.478Z,22.17
2023-04-18T17:46:20.859Z,34.93
2023-04-18T17:48:47.726Z,15.93
2023-04-18T17:51:16.387Z,22.23
2023-04-18T17:53:43.915Z,16.77
2023-04-18T17:56:10.847Z,18.57
2023-04-18T17:58:37.607Z,15.87
2023-04-18T18:01:13.378Z,14.83
2023-04-18T18:03:40.594Z,19.00
2023-04-18T18:06:07.917Z,18.07
2023-04-18T18:08:34.692Z,15.30
2023-04-18T18:11:02.882Z,26.03
2023-04-18T18:13:29.706Z,16.50
2023-04-18T18:15:57.579Z,16.70
2023-04-18T18:18:24.610Z,21.33
2023-04-18T18:20:51.603Z,20.00
2023-04-18T18:23:18.783Z,25.70
2023-04-18T18:25:46.054Z,16.07
2023-04-18T18:28:13.232Z,17.43
2023-04-18T18:30:40.103Z,19.63
2023-04-18T18:33:07.281Z,17.63
2023-04-18T18:35:35.030Z,16.15
2023-04-18T18:38:02.132Z,16.50
2023-04-18T18:40:29.038Z,16.37
2023-04-18T18:42:59.087Z,16.40
2023-04-18T18:45:26.047Z,17.37
2023-04-18T18:47:53.285Z,21.93
2023-04-18T18:50:20.462Z,18.53
2023-04-18T18:52:47.646Z,20.40
2023-04-18T18:55:16.260Z,17.13
2023-04-18T18:57:43.033Z,19.77
2023-04-18T19:00:13.392Z,16.77
2023-04-18T19:02:40.464Z,19.07
2023-04-18T19:05:08.098Z,18.50
2023-04-18T19:07:35.614Z,21.87
2023-04-18T19:10:03.471Z,20.20
2023-04-18T19:12:30.360Z,20.63
2023-04-18T19:14:57.242Z,20.03
2023-04-18T19:17:24.870Z,21.00
2023-04-18T19:19:52.663Z,24.17
2023-04-18T19:22:19.856Z,25.13
2023-04-18T19:24:47.026Z,20.60
2023-04-18T19:27:13.878Z,22.43
2023-04-18T19:29:46.752Z,19.70
2023-04-18T19:32:13.555Z,22.30
2023-04-18T19:34:40.717Z,19.50
2023-04-18T19:37:07.906Z,18.60
2023-04-18T19:39:35.173Z,23.17
2023-04-18T19:42:04.986Z,19.67
2023-04-18T19:44:32.391Z,19.33
2023-04-18T19:46:59.583Z,23.83
2023-04-18T19:49:26.371Z,19.30
2023-04-18T19:51:53.226Z,20.90
2023-04-18T19:54:21.882Z,23.43
2023-04-18T19:56:49.359Z,22.13
2023-04-18T19:59:16.432Z,18.07
2023-04-18T20:01:43.863Z,23.67
2023-04-18T20:04:11.290Z,18.33
2023-04-18T20:06:38.105Z,21.30
2023-04-18T20:09:06.032Z,18.50
2023-04-18T20:11:33.401Z,18.67
2023-04-18T20:14:00.683Z,19.33
2023-04-18T20:16:27.940Z,22.90
2023-04-18T20:18:55.887Z,22.23
2023-04-18T20:21:24.925Z,19.07
2023-04-18T20:23:51.822Z,20.77
2023-04-18T20:26:19.400Z,20.30
2023-04-18T20:28:46.600Z,19.33
2023-04-18T20:31:13.827Z,20.53
2023-04-18T20:33:41.280Z,22.80
2023-04-18T20:36:08.692Z,22.43
2023-04-18T20:38:37.241Z,21.97
2023-04-18T20:41:04.195Z,21.30
2023-04-18T20:43:37.226Z,18.73
2023-04-18T20:46:04.568Z,25.63
2023-04-18T20:48:31.765Z,18.87
2023-04-18T20:50:58.895Z,20.53
2023-04-18T20:53:27.071Z,21.10
2023-04-18T20:55:54.285Z,19.33
2023-04-18T20:58:21.519Z,20.60
2023-04-18T21:00:48.916Z,19.70
2023-04-18T21:03:16.284Z,19.07
2023-04-18T21:05:44.024Z,21.07
2023-04-18T21:08:13.876Z,21.63
2023-04-18T21:10:40.673Z,23.60
2023-04-18T21:13:09.168Z,17.77
2023-04-18T21:15:36.304Z,24.77
2023-04-18T21:18:03.170Z,17.90
2023-04-18T21:20:29.950Z,16.73
2023-04-18T21:22:56.730Z,22.57
2023-04-18T21:25:23.409Z,15.50
2023-04-18T21:27:50.849Z,20.37
2023-04-18T21:30:17.789Z,17.30
2023-04-18T21:32:46.062Z,19.33
2023-04-18T21:35:13.130Z,17.30
2023-04-18T21:37:39.829Z,15.60
2023-04-18T21:40:07.430Z,15.80
2023-04-18T21:42:35.423Z,14.33
2023-04-18T21:45:02.415Z,24.03
2023-04-18T21:47:29.186Z,14.60
2023-04-18T21:49:55.949Z,15.23
2023-04-18T21:52:22.841Z,17.07
2023-04-18T21:54:49.631Z,13.83
2023-04-18T21:57:16.403Z,15.17
2023-04-18T21:59:43.128Z,13.50
2023-04-18T22:02:10.454Z,15.53
2023-04-18T22:04:38.134Z,15.97
2023-04-18T22:07:05.028Z,12.80
2023-04-18T22:09:34.364Z,14.23
2023-04-18T22:12:03.665Z,19.83
2023-04-18T22:14:32.227Z,13.50
2023-04-18T22:16:59.113Z,12.10
2023-04-18T22:19:29.414Z,12.57
2023-04-18T22:21:56.452Z,13.97
2023-04-18T22:24:24.583Z,11.63
2023-04-18T22:26:51.594Z,16.20
2023-04-18T22:29:18.329Z,15.47
2023-04-18T22:31:45.347Z,10.43
2023-04-18T22:34:12.167Z,10.83
2023-04-18T22:36:38.991Z,11.00
2023-04-18T22:39:06.293Z,9.70
2023-04-18T22:41:33.096Z,15.00
2023-04-18T22:43:59.837Z,13.40
2023-04-18T22:46:27.224Z,12.53
2023-04-18T22:48:54.260Z,11.23
2023-04-18T22:51:21.035Z,11.10
2023-04-18T22:53:47.738Z,11.20
2023-04-18T22:56:14.519Z,13.83
2023-04-18T22:58:41.212Z,12.87
2023-04-18T23:01:08.431Z,11.77
2023-04-18T23:03:35.368Z,14.50
2023-04-18T23:06:02.153Z,11.10
2023-04-18T23:08:28.969Z,13.90
2023-04-18T23:10:55.842Z,15.70
2023-04-18T23:13:22.909Z,12.30
2023-04-18T23:15:49.788Z,13.53
2023-04-18T23:18:16.555Z,18.03
2023-04-18T23:20:43.250Z,10.47
2023-04-18T23:23:09.953Z,8.47
2023-04-18T23:25:37.121Z,15.00
2023-04-18T23:28:03.991Z,10.63
2023-04-18T23:30:31.159Z,8.97
2023-04-18T23:32:57.886Z,9.33
2023-04-18T23:35:24.639Z,11.00
2023-04-18T23:37:51.367Z,9.17
2023-04-18T23:40:18.213Z,11.40
2023-04-18T23:42:45.029Z,8.53
2023-04-18T23:45:12.103Z,11.30
2023-04-18T23:47:38.858Z,9.43
2023-04-18T23:50:06.131Z,9.60
2023-04-18T23:52:32.837Z,11.30
2023-04-18T23:55:00.764Z,9.83
2023-04-18T23:57:27.764Z,9.10
2023-04-18T23:59:54.424Z,17.77
